sensor_id;sensor_type;location;lat;lon;timestamp;temperature;humidity
1978;DHT22;989;53.016;8.346;2022-09-09T00:04:28;13.10;99.90
1978;DHT22;989;53.016;8.346;2022-09-09T00:21:34;13.00;99.90
1978;DHT22;989;53.016;8.346;2022-09-09T00:24:11;12.90;99.90
1978;DHT22;989;53.016;8.346;2022-09-09T00:27:06;12.80;99.90
1978;DHT22;989;53.016;8.346;2022-09-09T00:29:56;12.80;99.90
1978;DHT22;989;53.016;8.346;2022-09-09T00:32:28;13.10;99.90
1978;DHT22;989;53.016;8.346;2022-09-09T00:35:18;13.20;99.90
1978;DHT22;989;53.016;8.346;2022-09-09T00:37:54;13.20;99.90
1978;DHT22;989;53.016;8.346;2022-09-09T00:41:02;13.30;99.90
1978;DHT22;989;53.016;8.346;2022-09-09T00:43:36;13.40;99.90
1978;DHT22;989;53.016;8.346;2022-09-09T00:58:09;13.60;99.90
1978;DHT22;989;53.016;8.346;2022-09-09T01:00:53;13.70;99.90
1978;DHT22;989;53.016;8.346;2022-09-09T01:06:32;13.60;99.90
1978;DHT22;989;53.016;8.346;2022-09-09T01:17:20;13.30;99.90
1978;DHT22;989;53.016;8.346;2022-09-09T01:20:14;13.20;99.90
1978;DHT22;989;53.016;8.346;2022-09-09T01:26:21;13.20;99.90
1978;DHT22;989;53.016;8.346;2022-09-09T01:29:01;13.10;99.90
1978;DHT22;989;53.016;8.346;2022-09-09T01:31:36;13.00;99.90
1978;DHT22;989;53.016;8.346;2022-09-09T01:34:14;12.90;99.90
1978;DHT22;989;53.016;8.346;2022-09-09T01:36:53;12.80;99.90
1978;DHT22;989;53.016;8.346;2022-09-09T01:39:23;12.70;99.90
1978;DHT22;989;53.016;8.346;2022-09-09T01:41:49;12.60;99.90
1978;DHT22;989;53.016;8.346;2022-09-09T01:44:15;12.60;99.90
1978;DHT22;989;53.016;8.346;2022-09-09T01:46:43;12.60;99.90
1978;DHT22;989;53.016;8.346;2022-09-09T01:49:09;12.60;99.90
1978;DHT22;989;53.016;8.346;2022-09-09T01:51:36;12.70;99.90
1978;DHT22;989;53.016;8.346;2022-09-09T01:54:03;12.70;99.90
1978;DHT22;989;53.016;8.346;2022-09-09T01:59:55;12.50;99.90
1978;DHT22;989;53.016;8.346;2022-09-09T02:02:32;12.40;99.90
1978;DHT22;989;53.016;8.346;2022-09-09T02:05:06;12.30;99.90
1978;DHT22;989;53.016;8.346;2022-09-09T02:07:42;12.40;99.90
1978;DHT22;989;53.016;8.346;2022-09-09T02:10:25;12.30;99.90
1978;DHT22;989;53.016;8.346;2022-09-09T02:13:12;12.30;99.90
1978;DHT22;989;53.016;8.346;2022-09-09T02:16:14;12.40;99.90
1978;DHT22;989;53.016;8.346;2022-09-09T02:19:01;12.30;99.90
1978;DHT22;989;53.016;8.346;2022-09-09T02:21:29;12.40;99.90
1978;DHT22;989;53.016;8.346;2022-09-09T02:23:59;12.40;99.90
1978;DHT22;989;53.016;8.346;2022-09-09T02:26:26;12.40;99.90
1978;DHT22;989;53.016;8.346;2022-09-09T02:28:55;12.30;99.90
1978;DHT22;989;53.016;8.346;2022-09-09T02:31:24;12.30;99.90
1978;DHT22;989;53.016;8.346;2022-09-09T02:33:57;12.30;99.90
1978;DHT22;989;53.016;8.346;2022-09-09T02:36:27;12.20;99.90
1978;DHT22;989;53.016;8.346;2022-09-09T02:38:56;12.20;99.90
1978;DHT22;989;53.016;8.346;2022-09-09T02:41:33;12.10;99.90
1978;DHT22;989;53.016;8.346;2022-09-09T02:44:00;12.10;99.90
1978;DHT22;989;53.016;8.346;2022-09-09T02:55:10;12.50;99.90
1978;DHT22;989;53.016;8.346;2022-09-09T02:57:40;12.60;99.90
1978;DHT22;989;53.016;8.346;2022-09-09T03:00:07;12.70;99.90
1978;DHT22;989;53.016;8.346;2022-09-09T03:02:33;12.80;99.90
1978;DHT22;989;53.016;8.346;2022-09-09T03:04:59;12.90;99.90
1978;DHT22;989;53.016;8.346;2022-09-09T03:07:25;13.00;99.90
1978;DHT22;989;53.016;8.346;2022-09-09T03:09:50;13.00;99.90
1978;DHT22;989;53.016;8.346;2022-09-09T03:12:16;13.10;99.90
1978;DHT22;989;53.016;8.346;2022-09-09T03:14:42;13.10;99.90
1978;DHT22;989;53.016;8.346;2022-09-09T03:17:09;13.20;99.90
1978;DHT22;989;53.016;8.346;2022-09-09T03:19:35;13.20;99.90
1978;DHT22;989;53.016;8.346;2022-09-09T03:22:01;13.30;99.90
1978;DHT22;989;53.016;8.346;2022-09-09T03:24:27;13.30;99.90
1978;DHT22;989;53.016;8.346;2022-09-09T03:26:52;13.30;99.90
1978;DHT22;989;53.016;8.346;2022-09-09T03:29:18;13.30;99.90
1978;DHT22;989;53.016;8.346;2022-09-09T03:31:44;13.20;99.90
1978;DHT22;989;53.016;8.346;2022-09-09T03:34:10;13.20;99.90
1978;DHT22;989;53.016;8.346;2022-09-09T03:36:36;13.20;99.90
1978;DHT22;989;53.016;8.346;2022-09-09T03:39:05;13.20;99.90
1978;DHT22;989;53.016;8.346;2022-09-09T03:41:30;13.20;99.90
1978;DHT22;989;53.016;8.346;2022-09-09T03:43:56;13.20;99.90
1978;DHT22;989;53.016;8.346;2022-09-09T03:46:23;13.20;99.90
1978;DHT22;989;53.016;8.346;2022-09-09T03:48:50;13.20;99.90
1978;DHT22;989;53.016;8.346;2022-09-09T03:51:18;13.20;99.90
1978;DHT22;989;53.016;8.346;2022-09-09T03:53:44;13.20;99.90
1978;DHT22;989;53.016;8.346;2022-09-09T03:56:10;13.10;99.90
1978;DHT22;989;53.016;8.346;2022-09-09T03:58:37;13.10;99.90
1978;DHT22;989;53.016;8.346;2022-09-09T04:01:11;13.20;99.90
1978;DHT22;989;53.016;8.346;2022-09-09T04:03:40;13.10;99.90
1978;DHT22;989;53.016;8.346;2022-09-09T04:06:07;13.10;99.90
1978;DHT22;989;53.016;8.346;2022-09-09T04:08:35;13.10;99.90
1978;DHT22;989;53.016;8.346;2022-09-09T04:11:01;13.00;99.90
1978;DHT22;989;53.016;8.346;2022-09-09T04:13:30;13.00;99.90
1978;DHT22;989;53.016;8.346;2022-09-09T04:15:58;12.90;99.90
1978;DHT22;989;53.016;8.346;2022-09-09T04:18:25;12.90;99.90
1978;DHT22;989;53.016;8.346;2022-09-09T04:20:52;12.80;99.90
1978;DHT22;989;53.016;8.346;2022-09-09T04:23:19;12.80;99.90
1978;DHT22;989;53.016;8.346;2022-09-09T04:25:47;12.80;99.90
1978;DHT22;989;53.016;8.346;2022-09-09T04:28:15;12.70;99.90
1978;DHT22;989;53.016;8.346;2022-09-09T04:30:42;12.60;99.90
1978;DHT22;989;53.016;8.346;2022-09-09T04:33:09;12.50;99.90
1978;DHT22;989;53.016;8.346;2022-09-09T04:35:35;12.50;99.90
1978;DHT22;989;53.016;8.346;2022-09-09T04:38:02;12.40;99.90
1978;DHT22;989;53.016;8.346;2022-09-09T04:40:29;12.40;99.90
1978;DHT22;989;53.016;8.346;2022-09-09T04:42:58;12.30;99.90
1978;DHT22;989;53.016;8.346;2022-09-09T04:45:24;12.20;99.90
1978;DHT22;989;53.016;8.346;2022-09-09T04:47:51;12.20;99.90
1978;DHT22;989;53.016;8.346;2022-09-09T04:50:17;12.30;99.90
1978;DHT22;989;53.016;8.346;2022-09-09T04:52:44;12.30;99.90
1978;DHT22;989;53.016;8.346;2022-09-09T04:55:10;12.40;99.90
1978;DHT22;989;53.016;8.346;2022-09-09T04:57:35;12.50;99.90
1978;DHT22;989;53.016;8.346;2022-09-09T05:00:02;12.60;99.90
1978;DHT22;989;53.016;8.346;2022-09-09T05:02:28;12.70;99.90
1978;DHT22;989;53.016;8.346;2022-09-09T05:04:55;12.70;99.90
1978;DHT22;989;53.016;8.346;2022-09-09T05:07:21;12.80;99.90
1978;DHT22;989;53.016;8.346;2022-09-09T05:09:47;12.80;99.90
1978;DHT22;989;53.016;8.346;2022-09-09T05:12:15;12.90;99.90
1978;DHT22;989;53.016;8.346;2022-09-09T05:14:42;13.00;99.90
1978;DHT22;989;53.016;8.346;2022-09-09T05:17:09;13.00;99.90
1978;DHT22;989;53.016;8.346;2022-09-09T05:19:35;13.00;99.90
1978;DHT22;989;53.016;8.346;2022-09-09T05:22:00;13.10;99.90
1978;DHT22;989;53.016;8.346;2022-09-09T05:24:26;13.10;99.90
1978;DHT22;989;53.016;8.346;2022-09-09T05:26:52;13.20;99.90
1978;DHT22;989;53.016;8.346;2022-09-09T05:29:18;13.20;99.90
1978;DHT22;989;53.016;8.346;2022-09-09T05:31:46;13.20;99.90
1978;DHT22;989;53.016;8.346;2022-09-09T05:34:12;13.20;99.90
1978;DHT22;989;53.016;8.346;2022-09-09T05:36:38;13.10;99.90
1978;DHT22;989;53.016;8.346;2022-09-09T05:39:04;13.10;99.90
1978;DHT22;989;53.016;8.346;2022-09-09T05:41:30;13.10;99.90
1978;DHT22;989;53.016;8.346;2022-09-09T05:43:57;13.10;99.90
1978;DHT22;989;53.016;8.346;2022-09-09T05:46:24;13.10;99.90
1978;DHT22;989;53.016;8.346;2022-09-09T05:48:51;13.10;99.90
1978;DHT22;989;53.016;8.346;2022-09-09T05:51:20;13.10;99.90
1978;DHT22;989;53.016;8.346;2022-09-09T05:53:47;13.10;99.90
1978;DHT22;989;53.016;8.346;2022-09-09T05:56:20;13.10;99.90
1978;DHT22;989;53.016;8.346;2022-09-09T05:58:51;13.10;99.90
1978;DHT22;989;53.016;8.346;2022-09-09T06:01:21;13.20;99.90
1978;DHT22;989;53.016;8.346;2022-09-09T06:03:48;13.30;99.90
1978;DHT22;989;53.016;8.346;2022-09-09T06:06:17;13.40;99.90
1978;DHT22;989;53.016;8.346;2022-09-09T06:08:50;13.50;99.90
1978;DHT22;989;53.016;8.346;2022-09-09T06:11:22;13.60;99.90
1978;DHT22;989;53.016;8.346;2022-09-09T06:13:50;13.80;99.90
1978;DHT22;989;53.016;8.346;2022-09-09T06:16:20;13.90;99.90
1978;DHT22;989;53.016;8.346;2022-09-09T06:18:49;14.00;99.90
1978;DHT22;989;53.016;8.346;2022-09-09T06:21:21;14.10;99.90
1978;DHT22;989;53.016;8.346;2022-09-09T06:23:50;14.20;99.90
1978;DHT22;989;53.016;8.346;2022-09-09T06:26:25;14.40;99.90
1978;DHT22;989;53.016;8.346;2022-09-09T06:28:59;14.60;99.90
1978;DHT22;989;53.016;8.346;2022-09-09T06:31:27;14.80;99.90
1978;DHT22;989;53.016;8.346;2022-09-09T06:33:57;14.90;99.90
1978;DHT22;989;53.016;8.346;2022-09-09T06:36:29;15.10;99.90
1978;DHT22;989;53.016;8.346;2022-09-09T06:38:56;15.10;99.90
1978;DHT22;989;53.016;8.346;2022-09-09T06:41:25;15.00;99.90
1978;DHT22;989;53.016;8.346;2022-09-09T06:43:53;14.90;99.90
1978;DHT22;989;53.016;8.346;2022-09-09T06:46:27;14.90;99.90
1978;DHT22;989;53.016;8.346;2022-09-09T06:48:54;14.90;99.90
1978;DHT22;989;53.016;8.346;2022-09-09T06:51:22;14.90;99.90
1978;DHT22;989;53.016;8.346;2022-09-09T06:53:54;14.90;99.90
1978;DHT22;989;53.016;8.346;2022-09-09T06:56:23;14.90;99.90
1978;DHT22;989;53.016;8.346;2022-09-09T06:59:09;14.90;99.90
1978;DHT22;989;53.016;8.346;2022-09-09T07:01:38;15.00;99.90
1978;DHT22;989;53.016;8.346;2022-09-09T07:04:09;15.00;99.90
1978;DHT22;989;53.016;8.346;2022-09-09T07:06:44;15.00;99.90
1978;DHT22;989;53.016;8.346;2022-09-09T07:09:13;15.00;99.90
1978;DHT22;989;53.016;8.346;2022-09-09T07:11:43;15.10;99.90
1978;DHT22;989;53.016;8.346;2022-09-09T07:14:11;15.20;99.90
1978;DHT22;989;53.016;8.346;2022-09-09T07:16:41;15.40;99.90
1978;DHT22;989;53.016;8.346;2022-09-09T07:19:07;15.40;99.90
1978;DHT22;989;53.016;8.346;2022-09-09T07:21:33;15.50;99.90
1978;DHT22;989;53.016;8.346;2022-09-09T07:23:59;15.70;98.80
1978;DHT22;989;53.016;8.346;2022-09-09T07:26:27;15.90;96.60
1978;DHT22;989;53.016;8.346;2022-09-09T07:28:55;16.20;93.50
1978;DHT22;989;53.016;8.346;2022-09-09T07:31:25;16.40;90.00
1978;DHT22;989;53.016;8.346;2022-09-09T07:33:52;16.50;87.60
1978;DHT22;989;53.016;8.346;2022-09-09T07:36:26;16.50;82.70
1978;DHT22;989;53.016;8.346;2022-09-09T07:38:58;16.70;86.20
1978;DHT22;989;53.016;8.346;2022-09-09T07:41:29;17.10;76.10
1978;DHT22;989;53.016;8.346;2022-09-09T07:44:11;17.30;71.50
1978;DHT22;989;53.016;8.346;2022-09-09T07:46:39;17.40;60.00
1978;DHT22;989;53.016;8.346;2022-09-09T07:49:05;17.50;73.70
1978;DHT22;989;53.016;8.346;2022-09-09T07:51:33;17.90;61.80
1978;DHT22;989;53.016;8.346;2022-09-09T07:54:06;17.80;53.10
1978;DHT22;989;53.016;8.346;2022-09-09T07:56:35;17.90;61.40
1978;DHT22;989;53.016;8.346;2022-09-09T07:59:02;17.90;52.60
1978;DHT22;989;53.016;8.346;2022-09-09T08:01:34;17.80;39.90
1978;DHT22;989;53.016;8.346;2022-09-09T08:04:10;17.50;48.80
1978;DHT22;989;53.016;8.346;2022-09-09T08:06:42;17.90;51.10
1978;DHT22;989;53.016;8.346;2022-09-09T08:09:10;18.40;44.20
1978;DHT22;989;53.016;8.346;2022-09-09T08:11:36;19.00;24.40
1978;DHT22;989;53.016;8.346;2022-09-09T08:14:03;19.10;16.00
1978;DHT22;989;53.016;8.346;2022-09-09T08:16:32;19.10;18.50
1978;DHT22;989;53.016;8.346;2022-09-09T08:18:59;19.30;21.60
1978;DHT22;989;53.016;8.346;2022-09-09T08:21:27;19.40;11.80
1978;DHT22;989;53.016;8.346;2022-09-09T08:23:56;19.50;13.60
1978;DHT22;989;53.016;8.346;2022-09-09T08:26:31;19.90;9.60
1978;DHT22;989;53.016;8.346;2022-09-09T08:29:00;20.20;4.30
1978;DHT22;989;53.016;8.346;2022-09-09T08:31:30;20.10;1.00
1978;DHT22;989;53.016;8.346;2022-09-09T08:33:59;20.50;1.00
1978;DHT22;989;53.016;8.346;2022-09-09T08:36:27;20.20;1.00
1978;DHT22;989;53.016;8.346;2022-09-09T08:38:57;20.00;2.40
1978;DHT22;989;53.016;8.346;2022-09-09T08:47:31;21.10;1.00
1978;DHT22;989;53.016;8.346;2022-09-09T08:53:11;20.90;1.00
1978;DHT22;989;53.016;8.346;2022-09-09T08:58:31;22.00;1.00
1978;DHT22;989;53.016;8.346;2022-09-09T09:04:38;22.10;1.00
1978;DHT22;989;53.016;8.346;2022-09-09T09:12:41;21.50;1.00
1978;DHT22;989;53.016;8.346;2022-09-09T09:15:21;21.60;1.00
1978;DHT22;989;53.016;8.346;2022-09-09T09:17:51;22.40;1.00
1978;DHT22;989;53.016;8.346;2022-09-09T09:20:23;22.10;1.00
1978;DHT22;989;53.016;8.346;2022-09-09T09:22:57;21.50;1.00
1978;DHT22;989;53.016;8.346;2022-09-09T09:25:34;21.10;1.00
1978;DHT22;989;53.016;8.346;2022-09-09T09:28:31;20.80;1.00
1978;DHT22;989;53.016;8.346;2022-09-09T09:31:11;20.70;1.00
1978;DHT22;989;53.016;8.346;2022-09-09T09:36:15;20.50;1.00
1978;DHT22;989;53.016;8.346;2022-09-09T09:38:53;20.50;1.00
1978;DHT22;989;53.016;8.346;2022-09-09T09:41:35;20.40;1.00
1978;DHT22;989;53.016;8.346;2022-09-09T09:44:03;20.10;1.00
1978;DHT22;989;53.016;8.346;2022-09-09T09:46:30;19.90;1.00
1978;DHT22;989;53.016;8.346;2022-09-09T09:49:09;19.70;1.00
1978;DHT22;989;53.016;8.346;2022-09-09T09:51:35;20.00;1.00
1978;DHT22;989;53.016;8.346;2022-09-09T09:54:27;19.90;1.00
1978;DHT22;989;53.016;8.346;2022-09-09T09:56:54;19.80;1.00
1978;DHT22;989;53.016;8.346;2022-09-09T09:59:34;20.00;1.00
1978;DHT22;989;53.016;8.346;2022-09-09T10:02:17;20.30;1.00
1978;DHT22;989;53.016;8.346;2022-09-09T10:04:45;20.50;1.00
1978;DHT22;989;53.016;8.346;2022-09-09T10:07:21;20.80;1.00
1978;DHT22;989;53.016;8.346;2022-09-09T10:09:53;21.10;1.00
1978;DHT22;989;53.016;8.346;2022-09-09T10:18:35;20.20;1.00
1978;DHT22;989;53.016;8.346;2022-09-09T10:30:09;21.70;1.00
1978;DHT22;989;53.016;8.346;2022-09-09T10:33:09;22.70;1.00
1978;DHT22;989;53.016;8.346;2022-09-09T10:35:48;23.20;1.00
1978;DHT22;989;53.016;8.346;2022-09-09T10:38:42;23.40;1.00
1978;DHT22;989;53.016;8.346;2022-09-09T10:43:54;22.20;1.00
1978;DHT22;989;53.016;8.346;2022-09-09T10:46:50;21.70;1.00
1978;DHT22;989;53.016;8.346;2022-09-09T10:50:20;21.80;1.00
1978;DHT22;989;53.016;8.346;2022-09-09T10:52:56;22.10;1.00
1978;DHT22;989;53.016;8.346;2022-09-09T10:55:35;21.60;1.00
1978;DHT22;989;53.016;8.346;2022-09-09T10:58:05;21.80;1.00
1978;DHT22;989;53.016;8.346;2022-09-09T11:00:41;22.30;1.00
1978;DHT22;989;53.016;8.346;2022-09-09T11:03:20;22.80;1.00
1978;DHT22;989;53.016;8.346;2022-09-09T11:06:16;22.80;1.00
1978;DHT22;989;53.016;8.346;2022-09-09T11:08:46;23.00;1.00
1978;DHT22;989;53.016;8.346;2022-09-09T11:11:28;22.80;1.00
1978;DHT22;989;53.016;8.346;2022-09-09T11:14:18;22.30;1.00
1978;DHT22;989;53.016;8.346;2022-09-09T11:16:53;22.40;1.00
1978;DHT22;989;53.016;8.346;2022-09-09T11:19:31;22.80;1.00
1978;DHT22;989;53.016;8.346;2022-09-09T11:22:22;22.60;1.00
1978;DHT22;989;53.016;8.346;2022-09-09T11:25:08;22.40;1.00
1978;DHT22;989;53.016;8.346;2022-09-09T11:34:24;23.70;1.00
1978;DHT22;989;53.016;8.346;2022-09-09T11:37:22;23.10;1.00
1978;DHT22;989;53.016;8.346;2022-09-09T11:40:08;22.30;1.00
1978;DHT22;989;53.016;8.346;2022-09-09T11:42:35;21.90;1.00
1978;DHT22;989;53.016;8.346;2022-09-09T11:45:19;21.80;1.00
1978;DHT22;989;53.016;8.346;2022-09-09T11:47:54;21.60;1.00
1978;DHT22;989;53.016;8.346;2022-09-09T11:52:48;21.30;1.00
1978;DHT22;989;53.016;8.346;2022-09-09T11:55:32;21.00;1.00
1978;DHT22;989;53.016;8.346;2022-09-09T11:58:00;20.50;1.00
1978;DHT22;989;53.016;8.346;2022-09-09T12:00:36;20.20;1.00
1978;DHT22;989;53.016;8.346;2022-09-09T12:03:04;20.40;1.00
1978;DHT22;989;53.016;8.346;2022-09-09T12:05:40;20.50;1.00
1978;DHT22;989;53.016;8.346;2022-09-09T12:08:11;21.50;1.00
1978;DHT22;989;53.016;8.346;2022-09-09T12:10:53;23.00;1.00
1978;DHT22;989;53.016;8.346;2022-09-09T12:13:26;24.40;1.00
1978;DHT22;989;53.016;8.346;2022-09-09T12:15:57;24.60;1.00
1978;DHT22;989;53.016;8.346;2022-09-09T12:18:38;24.70;1.00
1978;DHT22;989;53.016;8.346;2022-09-09T12:21:21;24.00;1.00
1978;DHT22;989;53.016;8.346;2022-09-09T12:24:06;23.40;1.00
1978;DHT22;989;53.016;8.346;2022-09-09T12:26:40;23.00;1.00
1978;DHT22;989;53.016;8.346;2022-09-09T12:32:22;22.20;1.00
1978;DHT22;989;53.016;8.346;2022-09-09T12:35:00;21.60;1.00
1978;DHT22;989;53.016;8.346;2022-09-09T12:40:30;19.80;1.00
1978;DHT22;989;53.016;8.346;2022-09-09T12:42:58;19.40;16.50
1978;DHT22;989;53.016;8.346;2022-09-09T12:45:31;19.00;19.70
1978;DHT22;989;53.016;8.346;2022-09-09T12:48:05;18.80;29.70
1978;DHT22;989;53.016;8.346;2022-09-09T12:50:35;18.60;30.90
1978;DHT22;989;53.016;8.346;2022-09-09T12:55:58;18.40;45.60
1978;DHT22;989;53.016;8.346;2022-09-09T12:58:26;18.50;54.50
1978;DHT22;989;53.016;8.346;2022-09-09T13:00:55;18.70;61.00
1978;DHT22;989;53.016;8.346;2022-09-09T13:03:22;19.10;65.20
1978;DHT22;989;53.016;8.346;2022-09-09T13:05:49;19.70;57.30
1978;DHT22;989;53.016;8.346;2022-09-09T13:08:16;19.80;33.80
1978;DHT22;989;53.016;8.346;2022-09-09T13:13:39;19.50;30.70
1978;DHT22;989;53.016;8.346;2022-09-09T13:16:36;19.10;28.20
1978;DHT22;989;53.016;8.346;2022-09-09T13:19:13;18.90;25.40
1978;DHT22;989;53.016;8.346;2022-09-09T13:21:40;18.90;22.80
1978;DHT22;989;53.016;8.346;2022-09-09T13:24:21;19.00;18.40
1978;DHT22;989;53.016;8.346;2022-09-09T13:27:40;18.90;17.30
1978;DHT22;989;53.016;8.346;2022-09-09T13:29:54;18.80;16.10
1978;DHT22;989;53.016;8.346;2022-09-09T13:32:21;18.70;14.20
1978;DHT22;989;53.016;8.346;2022-09-09T13:34:58;18.60;12.40
1978;DHT22;989;53.016;8.346;2022-09-09T13:37:37;18.60;11.40
1978;DHT22;989;53.016;8.346;2022-09-09T13:40:17;18.30;12.50
1978;DHT22;989;53.016;8.346;2022-09-09T13:42:45;18.20;19.10
1978;DHT22;989;53.016;8.346;2022-09-09T13:45:22;18.00;22.50
1978;DHT22;989;53.016;8.346;2022-09-09T13:47:55;18.00;25.80
1978;DHT22;989;53.016;8.346;2022-09-09T13:52:54;18.10;26.30
1978;DHT22;989;53.016;8.346;2022-09-09T13:55:22;18.10;27.30
1978;DHT22;989;53.016;8.346;2022-09-09T13:57:51;18.10;32.00
1978;DHT22;989;53.016;8.346;2022-09-09T14:00:18;18.10;36.30
1978;DHT22;989;53.016;8.346;2022-09-09T14:02:43;18.00;36.70
1978;DHT22;989;53.016;8.346;2022-09-09T14:05:10;18.00;36.80
1978;DHT22;989;53.016;8.346;2022-09-09T14:07:38;17.90;35.30
1978;DHT22;989;53.016;8.346;2022-09-09T14:10:05;17.80;39.30
1978;DHT22;989;53.016;8.346;2022-09-09T14:12:31;17.60;38.90
1978;DHT22;989;53.016;8.346;2022-09-09T14:14:57;17.60;42.50
1978;DHT22;989;53.016;8.346;2022-09-09T14:17:22;17.50;44.40
1978;DHT22;989;53.016;8.346;2022-09-09T14:19:48;17.40;45.10
1978;DHT22;989;53.016;8.346;2022-09-09T14:22:14;17.40;46.30
1978;DHT22;989;53.016;8.346;2022-09-09T14:24:40;17.20;48.20
1978;DHT22;989;53.016;8.346;2022-09-09T14:27:06;17.10;52.00
1978;DHT22;989;53.016;8.346;2022-09-09T14:29:32;17.00;50.30
1978;DHT22;989;53.016;8.346;2022-09-09T14:31:58;17.00;53.70
1978;DHT22;989;53.016;8.346;2022-09-09T14:34:26;17.00;54.20
1978;DHT22;989;53.016;8.346;2022-09-09T14:36:52;17.00;52.80
1978;DHT22;989;53.016;8.346;2022-09-09T14:39:18;17.00;49.50
1978;DHT22;989;53.016;8.346;2022-09-09T14:41:43;17.00;48.70
1978;DHT22;989;53.016;8.346;2022-09-09T14:44:10;17.00;46.60
1978;DHT22;989;53.016;8.346;2022-09-09T14:46:36;17.20;45.20
1978;DHT22;989;53.016;8.346;2022-09-09T14:49:02;17.30;42.40
1978;DHT22;989;53.016;8.346;2022-09-09T14:51:27;17.40;38.90
1978;DHT22;989;53.016;8.346;2022-09-09T14:53:55;17.50;33.70
1978;DHT22;989;53.016;8.346;2022-09-09T14:56:25;17.60;22.50
1978;DHT22;989;53.016;8.346;2022-09-09T14:58:56;17.70;13.70
1978;DHT22;989;53.016;8.346;2022-09-09T15:01:23;17.80;11.40
1978;DHT22;989;53.016;8.346;2022-09-09T15:03:52;18.00;8.20
1978;DHT22;989;53.016;8.346;2022-09-09T15:06:21;18.10;5.30
1978;DHT22;989;53.016;8.346;2022-09-09T15:08:50;18.40;2.30
1978;DHT22;989;53.016;8.346;2022-09-09T15:11:17;18.50;3.30
1978;DHT22;989;53.016;8.346;2022-09-09T15:13:44;18.60;1.80
1978;DHT22;989;53.016;8.346;2022-09-09T15:16:11;18.50;1.30
1978;DHT22;989;53.016;8.346;2022-09-09T15:18:38;18.40;1.00
1978;DHT22;989;53.016;8.346;2022-09-09T15:21:13;18.10;2.50
1978;DHT22;989;53.016;8.346;2022-09-09T15:23:44;18.00;1.00
1978;DHT22;989;53.016;8.346;2022-09-09T15:26:11;17.80;5.00
1978;DHT22;989;53.016;8.346;2022-09-09T15:28:39;17.70;15.40
1978;DHT22;989;53.016;8.346;2022-09-09T15:31:09;17.40;25.60
1978;DHT22;989;53.016;8.346;2022-09-09T15:36:41;17.10;41.40
1978;DHT22;989;53.016;8.346;2022-09-09T15:39:10;16.90;51.90
1978;DHT22;989;53.016;8.346;2022-09-09T15:41:41;16.90;60.10
1978;DHT22;989;53.016;8.346;2022-09-09T15:44:09;16.90;63.60
1978;DHT22;989;53.016;8.346;2022-09-09T15:46:58;17.10;65.60
1978;DHT22;989;53.016;8.346;2022-09-09T15:49:25;17.30;62.00
1978;DHT22;989;53.016;8.346;2022-09-09T15:52:10;17.70;65.90
1978;DHT22;989;53.016;8.346;2022-09-09T15:54:36;18.20;54.90
1978;DHT22;989;53.016;8.346;2022-09-09T15:57:06;18.40;41.70
1978;DHT22;989;53.016;8.346;2022-09-09T15:59:33;19.30;37.90
1978;DHT22;989;53.016;8.346;2022-09-09T16:01:59;19.80;16.20
1978;DHT22;989;53.016;8.346;2022-09-09T16:04:26;20.00;9.90
1978;DHT22;989;53.016;8.346;2022-09-09T16:06:59;21.10;1.00
1978;DHT22;989;53.016;8.346;2022-09-09T16:09:28;21.60;1.00
1978;DHT22;989;53.016;8.346;2022-09-09T16:11:58;20.90;1.00
1978;DHT22;989;53.016;8.346;2022-09-09T16:14:26;20.50;1.00
1978;DHT22;989;53.016;8.346;2022-09-09T16:16:52;20.10;2.80
1978;DHT22;989;53.016;8.346;2022-09-09T16:19:18;20.00;2.40
1978;DHT22;989;53.016;8.346;2022-09-09T16:21:49;20.00;3.90
1978;DHT22;989;53.016;8.346;2022-09-09T16:24:17;19.60;6.60
1978;DHT22;989;53.016;8.346;2022-09-09T16:26:46;19.40;11.80
1978;DHT22;989;53.016;8.346;2022-09-09T16:29:16;19.30;13.80
1978;DHT22;989;53.016;8.346;2022-09-09T16:31:44;19.10;16.30
1978;DHT22;989;53.016;8.346;2022-09-09T16:34:11;18.90;20.80
1978;DHT22;989;53.016;8.346;2022-09-09T16:36:38;18.50;28.00
1978;DHT22;989;53.016;8.346;2022-09-09T16:39:06;18.20;33.10
1978;DHT22;989;53.016;8.346;2022-09-09T16:41:34;17.90;42.80
1978;DHT22;989;53.016;8.346;2022-09-09T16:44:04;17.80;48.80
1978;DHT22;989;53.016;8.346;2022-09-09T16:46:34;17.60;51.80
1978;DHT22;989;53.016;8.346;2022-09-09T16:49:02;17.30;59.80
1978;DHT22;989;53.016;8.346;2022-09-09T16:51:38;17.10;55.60
1978;DHT22;989;53.016;8.346;2022-09-09T16:54:07;16.80;54.60
1978;DHT22;989;53.016;8.346;2022-09-09T16:56:36;16.40;65.50
1978;DHT22;989;53.016;8.346;2022-09-09T16:59:06;16.10;80.10
1978;DHT22;989;53.016;8.346;2022-09-09T17:01:35;15.80;87.40
1978;DHT22;989;53.016;8.346;2022-09-09T17:04:05;15.60;93.10
1978;DHT22;989;53.016;8.346;2022-09-09T17:06:34;15.50;94.50
1978;DHT22;989;53.016;8.346;2022-09-09T17:09:02;15.50;95.70
1978;DHT22;989;53.016;8.346;2022-09-09T17:11:29;15.70;97.50
1978;DHT22;989;53.016;8.346;2022-09-09T17:13:56;15.60;95.10
1978;DHT22;989;53.016;8.346;2022-09-09T17:16:25;15.60;95.50
1978;DHT22;989;53.016;8.346;2022-09-09T17:18:53;15.50;97.10
1978;DHT22;989;53.016;8.346;2022-09-09T17:21:22;15.60;97.70
1978;DHT22;989;53.016;8.346;2022-09-09T17:23:51;15.80;99.80
1978;DHT22;989;53.016;8.346;2022-09-09T17:26:19;15.90;99.90
1978;DHT22;989;53.016;8.346;2022-09-09T17:28:47;16.00;99.90
1978;DHT22;989;53.016;8.346;2022-09-09T17:31:15;16.20;99.90
1978;DHT22;989;53.016;8.346;2022-09-09T17:33:45;16.30;99.90
1978;DHT22;989;53.016;8.346;2022-09-09T17:36:17;16.30;99.90
1978;DHT22;989;53.016;8.346;2022-09-09T17:38:47;16.20;99.60
1978;DHT22;989;53.016;8.346;2022-09-09T17:41:28;16.10;98.60
1978;DHT22;989;53.016;8.346;2022-09-09T17:44:02;16.00;97.10
1978;DHT22;989;53.016;8.346;2022-09-09T17:46:37;15.70;97.00
1978;DHT22;989;53.016;8.346;2022-09-09T17:49:07;15.60;98.40
1978;DHT22;989;53.016;8.346;2022-09-09T17:51:41;15.50;98.60
1978;DHT22;989;53.016;8.346;2022-09-09T17:54:11;15.30;98.30
1978;DHT22;989;53.016;8.346;2022-09-09T17:56:39;15.20;99.40
1978;DHT22;989;53.016;8.346;2022-09-09T17:59:08;15.10;99.90
1978;DHT22;989;53.016;8.346;2022-09-09T18:01:40;15.00;99.90
1978;DHT22;989;53.016;8.346;2022-09-09T18:04:09;14.90;99.90
1978;DHT22;989;53.016;8.346;2022-09-09T18:06:41;14.80;99.90
1978;DHT22;989;53.016;8.346;2022-09-09T18:09:12;14.80;99.90
1978;DHT22;989;53.016;8.346;2022-09-09T18:11:42;14.70;99.90
1978;DHT22;989;53.016;8.346;2022-09-09T18:14:12;14.60;99.90
1978;DHT22;989;53.016;8.346;2022-09-09T18:16:40;14.50;99.90
1978;DHT22;989;53.016;8.346;2022-09-09T18:19:08;14.40;99.90
1978;DHT22;989;53.016;8.346;2022-09-09T18:21:38;14.40;99.90
1978;DHT22;989;53.016;8.346;2022-09-09T18:24:06;14.30;99.90
1978;DHT22;989;53.016;8.346;2022-09-09T18:26:34;14.30;99.90
1978;DHT22;989;53.016;8.346;2022-09-09T18:29:06;14.20;99.90
1978;DHT22;989;53.016;8.346;2022-09-09T18:31:34;14.20;99.90
1978;DHT22;989;53.016;8.346;2022-09-09T18:34:03;14.20;99.90
1978;DHT22;989;53.016;8.346;2022-09-09T18:36:42;14.20;99.90
1978;DHT22;989;53.016;8.346;2022-09-09T18:39:11;14.20;99.90
1978;DHT22;989;53.016;8.346;2022-09-09T18:41:40;14.10;99.90
1978;DHT22;989;53.016;8.346;2022-09-09T18:44:27;14.10;99.90
1978;DHT22;989;53.016;8.346;2022-09-09T18:46:55;14.00;99.90
1978;DHT22;989;53.016;8.346;2022-09-09T18:49:21;14.00;99.90
1978;DHT22;989;53.016;8.346;2022-09-09T18:51:48;13.90;99.90
1978;DHT22;989;53.016;8.346;2022-09-09T18:54:23;13.80;99.90